sensor_id;sensor_type;location;lat;lon;timestamp;temperature;humidity
76857;DHT22;69705;44.686;37.628;2023-07-30T00:02:16;18.13;86.11
76857;DHT22;69705;44.686;37.628;2023-07-30T00:04:43;18.05;86.30
76857;DHT22;69705;44.686;37.628;2023-07-30T00:07:10;18.02;86.45
76857;DHT22;69705;44.686;37.628;2023-07-30T00:09:38;17.94;86.38
76857;DHT22;69705;44.686;37.628;2023-07-30T00:12:06;17.90;86.75
76857;DHT22;69705;44.686;37.628;2023-07-30T00:14:34;17.83;87.15
76857;DHT22;69705;44.686;37.628;2023-07-30T00:17:01;17.79;87.05
76857;DHT22;69705;44.686;37.628;2023-07-30T00:19:28;17.77;87.25
76857;DHT22;69705;44.686;37.628;2023-07-30T00:21:54;17.76;87.07
76857;DHT22;69705;44.686;37.628;2023-07-30T00:24:21;17.77;87.28
76857;DHT22;69705;44.686;37.628;2023-07-30T00:26:48;17.81;86.94
76857;DHT22;69705;44.686;37.628;2023-07-30T00:29:14;17.81;87.21
76857;DHT22;69705;44.686;37.628;2023-07-30T00:31:41;17.82;87.00
76857;DHT22;69705;44.686;37.628;2023-07-30T00:34:08;17.85;87.32
76857;DHT22;69705;44.686;37.628;2023-07-30T00:36:35;17.85;87.18
76857;DHT22;69705;44.686;37.628;2023-07-30T00:39:01;17.85;87.11
76857;DHT22;69705;44.686;37.628;2023-07-30T00:41:28;17.83;87.28
76857;DHT22;69705;44.686;37.628;2023-07-30T00:43:55;17.83;87.29
76857;DHT22;69705;44.686;37.628;2023-07-30T00:46:21;17.85;87.09
76857;DHT22;69705;44.686;37.628;2023-07-30T00:48:48;17.88;87.30
76857;DHT22;69705;44.686;37.628;2023-07-30T00:51:16;17.89;87.48
76857;DHT22;69705;44.686;37.628;2023-07-30T00:53:43;17.90;87.47
76857;DHT22;69705;44.686;37.628;2023-07-30T00:56:10;17.88;87.54
76857;DHT22;69705;44.686;37.628;2023-07-30T00:58:37;17.89;87.28
76857;DHT22;69705;44.686;37.628;2023-07-30T01:01:04;17.91;87.22
76857;DHT22;69705;44.686;37.628;2023-07-30T01:03:30;17.92;87.16
76857;DHT22;69705;44.686;37.628;2023-07-30T01:05:58;17.90;87.48
76857;DHT22;69705;44.686;37.628;2023-07-30T01:08:25;17.90;87.25
76857;DHT22;69705;44.686;37.628;2023-07-30T01:10:52;17.95;87.40
76857;DHT22;69705;44.686;37.628;2023-07-30T01:13:19;17.94;87.39
76857;DHT22;69705;44.686;37.628;2023-07-30T01:15:47;17.94;87.61
76857;DHT22;69705;44.686;37.628;2023-07-30T01:18:14;17.94;87.74
76857;DHT22;69705;44.686;37.628;2023-07-30T01:20:40;17.95;88.10
76857;DHT22;69705;44.686;37.628;2023-07-30T01:23:07;17.98;87.96
76857;DHT22;69705;44.686;37.628;2023-07-30T01:25:36;17.99;86.75
76857;DHT22;69705;44.686;37.628;2023-07-30T01:28:05;18.02;87.73
76857;DHT22;69705;44.686;37.628;2023-07-30T01:30:41;18.06;87.52
76857;DHT22;69705;44.686;37.628;2023-07-30T01:33:10;18.08;87.24
76857;DHT22;69705;44.686;37.628;2023-07-30T01:35:38;18.08;87.56
76857;DHT22;69705;44.686;37.628;2023-07-30T01:38:06;18.07;87.16
76857;DHT22;69705;44.686;37.628;2023-07-30T01:40:33;18.06;87.51
76857;DHT22;69705;44.686;37.628;2023-07-30T01:43:00;18.04;87.40
76857;DHT22;69705;44.686;37.628;2023-07-30T01:45:27;18.03;87.57
76857;DHT22;69705;44.686;37.628;2023-07-30T01:47:53;18.00;87.55
76857;DHT22;69705;44.686;37.628;2023-07-30T01:50:20;18.02;87.58
76857;DHT22;69705;44.686;37.628;2023-07-30T01:52:47;18.00;87.60
76857;DHT22;69705;44.686;37.628;2023-07-30T01:55:13;17.97;87.55
76857;DHT22;69705;44.686;37.628;2023-07-30T01:57:40;17.97;87.52
76857;DHT22;69705;44.686;37.628;2023-07-30T02:00:07;17.96;87.48
76857;DHT22;69705;44.686;37.628;2023-07-30T02:02:34;17.88;87.79
76857;DHT22;69705;44.686;37.628;2023-07-30T02:05:01;17.89;87.69
76857;DHT22;69705;44.686;37.628;2023-07-30T02:07:29;17.83;88.24
76857;DHT22;69705;44.686;37.628;2023-07-30T02:09:56;17.82;88.42
76857;DHT22;69705;44.686;37.628;2023-07-30T02:12:22;17.84;88.62
76857;DHT22;69705;44.686;37.628;2023-07-30T02:14:49;17.87;88.27
76857;DHT22;69705;44.686;37.628;2023-07-30T02:17:16;17.84;88.72
76857;DHT22;69705;44.686;37.628;2023-07-30T02:19:42;17.82;88.90
76857;DHT22;69705;44.686;37.628;2023-07-30T02:22:09;17.82;89.00
76857;DHT22;69705;44.686;37.628;2023-07-30T02:24:35;17.84;89.00
76857;DHT22;69705;44.686;37.628;2023-07-30T02:27:02;17.81;89.08
76857;DHT22;69705;44.686;37.628;2023-07-30T02:29:29;17.83;89.17
76857;DHT22;69705;44.686;37.628;2023-07-30T02:31:57;17.79;89.59
76857;DHT22;69705;44.686;37.628;2023-07-30T02:34:25;17.82;89.57
76857;DHT22;69705;44.686;37.628;2023-07-30T02:36:52;17.84;89.50
76857;DHT22;69705;44.686;37.628;2023-07-30T02:39:19;17.83;89.41
76857;DHT22;69705;44.686;37.628;2023-07-30T02:41:46;17.90;88.90
76857;DHT22;69705;44.686;37.628;2023-07-30T02:44:13;17.93;88.92
76857;DHT22;69705;44.686;37.628;2023-07-30T02:46:40;17.98;88.85
76857;DHT22;69705;44.686;37.628;2023-07-30T02:49:06;17.99;88.63
76857;DHT22;69705;44.686;37.628;2023-07-30T02:51:34;18.00;88.57
76857;DHT22;69705;44.686;37.628;2023-07-30T02:54:04;18.03;88.64
76857;DHT22;69705;44.686;37.628;2023-07-30T02:56:31;18.04;88.47
76857;DHT22;69705;44.686;37.628;2023-07-30T02:58:58;18.07;88.31
76857;DHT22;69705;44.686;37.628;2023-07-30T03:01:26;18.10;88.15
76857;DHT22;69705;44.686;37.628;2023-07-30T03:03:57;18.07;88.39
76857;DHT22;69705;44.686;37.628;2023-07-30T03:06:24;18.08;88.49
76857;DHT22;69705;44.686;37.628;2023-07-30T03:08:51;18.09;88.47
76857;DHT22;69705;44.686;37.628;2023-07-30T03:11:17;18.08;88.51
76857;DHT22;69705;44.686;37.628;2023-07-30T03:13:44;18.12;88.60
76857;DHT22;69705;44.686;37.628;2023-07-30T03:16:11;18.17;88.49
76857;DHT22;69705;44.686;37.628;2023-07-30T03:18:37;18.23;88.67
76857;DHT22;69705;44.686;37.628;2023-07-30T03:21:04;18.29;88.68
76857;DHT22;69705;44.686;37.628;2023-07-30T03:23:30;18.35;88.89
76857;DHT22;69705;44.686;37.628;2023-07-30T03:25:58;18.42;89.05
76857;DHT22;69705;44.686;37.628;2023-07-30T03:28:26;18.52;89.47
76857;DHT22;69705;44.686;37.628;2023-07-30T03:30:53;18.63;89.42
76857;DHT22;69705;44.686;37.628;2023-07-30T03:33:20;18.73;89.60
76857;DHT22;69705;44.686;37.628;2023-07-30T03:35:47;18.85;89.51
76857;DHT22;69705;44.686;37.628;2023-07-30T03:38:14;18.96;89.51
76857;DHT22;69705;44.686;37.628;2023-07-30T03:40:41;19.05;89.60
76857;DHT22;69705;44.686;37.628;2023-07-30T03:43:08;19.18;89.28
76857;DHT22;69705;44.686;37.628;2023-07-30T03:45:34;19.29;89.29
76857;DHT22;69705;44.686;37.628;2023-07-30T03:48:01;19.41;89.28
76857;DHT22;69705;44.686;37.628;2023-07-30T03:50:28;19.53;89.15
76857;DHT22;69705;44.686;37.628;2023-07-30T03:52:55;19.63;89.27
76857;DHT22;69705;44.686;37.628;2023-07-30T03:55:21;19.73;89.44
76857;DHT22;69705;44.686;37.628;2023-07-30T03:57:48;19.85;88.80
76857;DHT22;69705;44.686;37.628;2023-07-30T04:00:15;20.02;89.04
76857;DHT22;69705;44.686;37.628;2023-07-30T04:02:41;20.18;88.60
76857;DHT22;69705;44.686;37.628;2023-07-30T04:05:08;20.34;88.31
76857;DHT22;69705;44.686;37.628;2023-07-30T04:07:35;20.50;88.28
76857;DHT22;69705;44.686;37.628;2023-07-30T04:10:01;20.65;89.14
76857;DHT22;69705;44.686;37.628;2023-07-30T04:12:29;20.83;88.66
76857;DHT22;69705;44.686;37.628;2023-07-30T04:14:55;21.00;88.70
76857;DHT22;69705;44.686;37.628;2023-07-30T04:17:22;21.15;88.09
76857;DHT22;69705;44.686;37.628;2023-07-30T04:19:49;21.33;87.72
76857;DHT22;69705;44.686;37.628;2023-07-30T04:22:15;21.46;86.82
76857;DHT22;69705;44.686;37.628;2023-07-30T04:24:42;21.63;85.80
76857;DHT22;69705;44.686;37.628;2023-07-30T04:27:09;21.81;85.23
76857;DHT22;69705;44.686;37.628;2023-07-30T04:29:36;21.98;84.51
76857;DHT22;69705;44.686;37.628;2023-07-30T04:32:03;22.11;84.39
76857;DHT22;69705;44.686;37.628;2023-07-30T04:34:29;22.20;84.26
76857;DHT22;69705;44.686;37.628;2023-07-30T04:36:56;22.36;83.69
76857;DHT22;69705;44.686;37.628;2023-07-30T04:39:23;22.48;83.49
76857;DHT22;69705;44.686;37.628;2023-07-30T04:41:50;22.60;82.68
76857;DHT22;69705;44.686;37.628;2023-07-30T04:44:16;22.71;81.96
76857;DHT22;69705;44.686;37.628;2023-07-30T04:46:43;22.82;81.35
76857;DHT22;69705;44.686;37.628;2023-07-30T04:49:10;22.88;82.04
76857;DHT22;69705;44.686;37.628;2023-07-30T04:51:36;22.96;82.02
76857;DHT22;69705;44.686;37.628;2023-07-30T04:54:04;23.05;80.39
76857;DHT22;69705;44.686;37.628;2023-07-30T04:56:31;23.11;80.65
76857;DHT22;69705;44.686;37.628;2023-07-30T04:58:57;23.16;79.86
76857;DHT22;69705;44.686;37.628;2023-07-30T05:01:24;23.26;79.44
76857;DHT22;69705;44.686;37.628;2023-07-30T05:03:51;23.38;79.65
76857;DHT22;69705;44.686;37.628;2023-07-30T05:06:17;23.49;79.07
76857;DHT22;69705;44.686;37.628;2023-07-30T05:08:44;23.60;77.95
76857;DHT22;69705;44.686;37.628;2023-07-30T05:11:11;23.74;77.60
76857;DHT22;69705;44.686;37.628;2023-07-30T05:13:37;23.91;77.35
76857;DHT22;69705;44.686;37.628;2023-07-30T05:16:04;24.05;77.85
76857;DHT22;69705;44.686;37.628;2023-07-30T05:18:31;24.28;77.50
76857;DHT22;69705;44.686;37.628;2023-07-30T05:20:57;24.36;76.34
76857;DHT22;69705;44.686;37.628;2023-07-30T05:23:24;24.46;75.15
76857;DHT22;69705;44.686;37.628;2023-07-30T05:25:51;24.54;74.02
76857;DHT22;69705;44.686;37.628;2023-07-30T05:28:17;24.61;73.32
76857;DHT22;69705;44.686;37.628;2023-07-30T05:30:44;24.69;73.32
76857;DHT22;69705;44.686;37.628;2023-07-30T05:33:10;24.76;72.30
76857;DHT22;69705;44.686;37.628;2023-07-30T05:35:37;24.84;72.39
76857;DHT22;69705;44.686;37.628;2023-07-30T05:38:04;24.90;66.63
76857;DHT22;69705;44.686;37.628;2023-07-30T05:40:30;24.93;68.15
76857;DHT22;69705;44.686;37.628;2023-07-30T05:42:57;25.01;67.64
76857;DHT22;69705;44.686;37.628;2023-07-30T05:45:25;25.12;66.32
76857;DHT22;69705;44.686;37.628;2023-07-30T05:47:51;25.16;67.72
76857;DHT22;69705;44.686;37.628;2023-07-30T05:50:18;25.22;67.25
76857;DHT22;69705;44.686;37.628;2023-07-30T05:52:44;25.27;67.31
76857;DHT22;69705;44.686;37.628;2023-07-30T05:55:11;25.29;67.40
76857;DHT22;69705;44.686;37.628;2023-07-30T05:57:37;25.37;66.24
76857;DHT22;69705;44.686;37.628;2023-07-30T06:00:05;25.47;66.06
76857;DHT22;69705;44.686;37.628;2023-07-30T06:02:38;25.58;64.43
76857;DHT22;69705;44.686;37.628;2023-07-30T06:05:04;25.73;63.31
76857;DHT22;69705;44.686;37.628;2023-07-30T06:07:31;25.86;63.83
76857;DHT22;69705;44.686;37.628;2023-07-30T06:09:58;25.99;62.70
76857;DHT22;69705;44.686;37.628;2023-07-30T06:12:24;26.11;63.34
76857;DHT22;69705;44.686;37.628;2023-07-30T06:14:51;26.32;61.36
76857;DHT22;69705;44.686;37.628;2023-07-30T06:17:17;26.43;62.27
76857;DHT22;69705;44.686;37.628;2023-07-30T06:19:44;26.61;60.85
76857;DHT22;69705;44.686;37.628;2023-07-30T06:22:10;26.82;59.37
76857;DHT22;69705;44.686;37.628;2023-07-30T06:24:37;27.04;58.34
76857;DHT22;69705;44.686;37.628;2023-07-30T06:27:04;27.21;59.05
76857;DHT22;69705;44.686;37.628;2023-07-30T06:29:31;27.29;61.15
76857;DHT22;69705;44.686;37.628;2023-07-30T06:31:57;27.31;61.57
76857;DHT22;69705;44.686;37.628;2023-07-30T06:34:24;27.40;59.02
76857;DHT22;69705;44.686;37.628;2023-07-30T06:36:50;27.45;57.86
76857;DHT22;69705;44.686;37.628;2023-07-30T06:39:17;27.39;58.13
76857;DHT22;69705;44.686;37.628;2023-07-30T06:41:44;27.46;58.66
76857;DHT22;69705;44.686;37.628;2023-07-30T06:44:12;27.55;59.77
76857;DHT22;69705;44.686;37.628;2023-07-30T06:46:38;27.71;55.98
76857;DHT22;69705;44.686;37.628;2023-07-30T06:49:05;27.84;56.44
76857;DHT22;69705;44.686;37.628;2023-07-30T06:51:31;27.95;56.76
76857;DHT22;69705;44.686;37.628;2023-07-30T06:53:58;28.01;55.61
76857;DHT22;69705;44.686;37.628;2023-07-30T06:56:24;28.06;57.50
76857;DHT22;69705;44.686;37.628;2023-07-30T06:58:51;28.09;52.14
76857;DHT22;69705;44.686;37.628;2023-07-30T07:01:18;28.23;56.21
76857;DHT22;69705;44.686;37.628;2023-07-30T07:03:44;28.43;53.74
76857;DHT22;69705;44.686;37.628;2023-07-30T07:06:11;28.52;51.92
76857;DHT22;69705;44.686;37.628;2023-07-30T07:08:37;28.60;54.06
76857;DHT22;69705;44.686;37.628;2023-07-30T07:11:04;28.72;53.22
76857;DHT22;69705;44.686;37.628;2023-07-30T07:13:31;28.73;50.85
76857;DHT22;69705;44.686;37.628;2023-07-30T07:15:58;28.83;49.85
76857;DHT22;69705;44.686;37.628;2023-07-30T07:18:24;28.87;48.84
76857;DHT22;69705;44.686;37.628;2023-07-30T07:20:51;28.91;49.13
76857;DHT22;69705;44.686;37.628;2023-07-30T07:23:17;28.93;47.97
76857;DHT22;69705;44.686;37.628;2023-07-30T07:25:44;29.00;51.49
76857;DHT22;69705;44.686;37.628;2023-07-30T07:28:11;29.05;48.53
76857;DHT22;69705;44.686;37.628;2023-07-30T07:30:37;29.14;48.18
76857;DHT22;69705;44.686;37.628;2023-07-30T07:33:04;29.28;49.29
76857;DHT22;69705;44.686;37.628;2023-07-30T07:35:32;29.20;48.01
76857;DHT22;69705;44.686;37.628;2023-07-30T07:37:58;29.31;47.09
76857;DHT22;69705;44.686;37.628;2023-07-30T07:40:25;29.45;47.41
76857;DHT22;69705;44.686;37.628;2023-07-30T07:42:52;29.64;48.52
76857;DHT22;69705;44.686;37.628;2023-07-30T07:45:19;29.76;46.28
76857;DHT22;69705;44.686;37.628;2023-07-30T07:47:45;29.87;47.29
76857;DHT22;69705;44.686;37.628;2023-07-30T07:50:12;29.87;46.14
76857;DHT22;69705;44.686;37.628;2023-07-30T07:52:39;29.93;47.27
76857;DHT22;69705;44.686;37.628;2023-07-30T07:55:05;30.07;47.61
76857;DHT22;69705;44.686;37.628;2023-07-30T07:57:32;30.10;44.85
76857;DHT22;69705;44.686;37.628;2023-07-30T07:59:59;30.07;42.48
76857;DHT22;69705;44.686;37.628;2023-07-30T08:02:25;30.18;45.67
76857;DHT22;69705;44.686;37.628;2023-07-30T08:04:52;30.28;45.64
76857;DHT22;69705;44.686;37.628;2023-07-30T08:07:19;30.41;46.20
76857;DHT22;69705;44.686;37.628;2023-07-30T08:09:45;30.38;43.62
76857;DHT22;69705;44.686;37.628;2023-07-30T08:12:12;30.52;43.98
76857;DHT22;69705;44.686;37.628;2023-07-30T08:14:40;30.62;44.20
76857;DHT22;69705;44.686;37.628;2023-07-30T08:17:07;30.69;43.26
76857;DHT22;69705;44.686;37.628;2023-07-30T08:19:33;30.74;43.32
76857;DHT22;69705;44.686;37.628;2023-07-30T08:22:00;30.78;41.78
76857;DHT22;69705;44.686;37.628;2023-07-30T08:24:26;30.86;44.22
76857;DHT22;69705;44.686;37.628;2023-07-30T08:26:53;30.84;43.23
76857;DHT22;69705;44.686;37.628;2023-07-30T08:29:19;30.54;43.39
76857;DHT22;69705;44.686;37.628;2023-07-30T08:31:46;30.50;44.86
76857;DHT22;69705;44.686;37.628;2023-07-30T08:34:13;30.44;43.81
76857;DHT22;69705;44.686;37.628;2023-07-30T08:36:39;30.64;45.58
76857;DHT22;69705;44.686;37.628;2023-07-30T08:39:06;30.60;44.52
76857;DHT22;69705;44.686;37.628;2023-07-30T08:41:34;30.49;46.47
76857;DHT22;69705;44.686;37.628;2023-07-30T08:44:00;30.15;46.88
76857;DHT22;69705;44.686;37.628;2023-07-30T08:46:28;29.92;45.69
76857;DHT22;69705;44.686;37.628;2023-07-30T08:48:54;29.93;45.32
76857;DHT22;69705;44.686;37.628;2023-07-30T08:51:23;30.21;44.32
76857;DHT22;69705;44.686;37.628;2023-07-30T08:53:56;30.64;45.69
76857;DHT22;69705;44.686;37.628;2023-07-30T08:56:23;30.86;48.41
76857;DHT22;69705;44.686;37.628;2023-07-30T08:58:51;30.65;45.38
76857;DHT22;69705;44.686;37.628;2023-07-30T09:01:20;30.36;45.64
76857;DHT22;69705;44.686;37.628;2023-07-30T09:03:48;30.18;46.63
76857;DHT22;69705;44.686;37.628;2023-07-30T09:06:16;30.39;48.31
76857;DHT22;69705;44.686;37.628;2023-07-30T09:08:43;30.54;46.69
76857;DHT22;69705;44.686;37.628;2023-07-30T09:11:10;30.24;45.95
76857;DHT22;69705;44.686;37.628;2023-07-30T09:13:38;30.05;49.36
76857;DHT22;69705;44.686;37.628;2023-07-30T09:16:12;29.81;49.25
76857;DHT22;69705;44.686;37.628;2023-07-30T09:18:40;29.82;48.63
76857;DHT22;69705;44.686;37.628;2023-07-30T09:21:09;30.22;49.05
76857;DHT22;69705;44.686;37.628;2023-07-30T09:23:41;30.59;47.82
76857;DHT22;69705;44.686;37.628;2023-07-30T09:26:08;30.56;49.28
76857;DHT22;69705;44.686;37.628;2023-07-30T09:28:36;30.36;48.83
76857;DHT22;69705;44.686;37.628;2023-07-30T09:31:04;30.49;48.47
76857;DHT22;69705;44.686;37.628;2023-07-30T09:33:32;30.24;49.17
76857;DHT22;69705;44.686;37.628;2023-07-30T09:36:03;29.87;47.82
76857;DHT22;69705;44.686;37.628;2023-07-30T09:38:30;29.75;47.76
76857;DHT22;69705;44.686;37.628;2023-07-30T09:41:02;30.25;48.37
76857;DHT22;69705;44.686;37.628;2023-07-30T09:43:32;30.64;46.73
76857;DHT22;69705;44.686;37.628;2023-07-30T09:46:03;30.94;46.32
76857;DHT22;69705;44.686;37.628;2023-07-30T09:48:34;31.31;45.98
76857;DHT22;69705;44.686;37.628;2023-07-30T09:51:02;31.37;47.29
76857;DHT22;69705;44.686;37.628;2023-07-30T09:53:30;31.55;47.18
76857;DHT22;69705;44.686;37.628;2023-07-30T09:56:04;31.29;46.45
76857;DHT22;69705;44.686;37.628;2023-07-30T09:58:32;31.44;45.83
76857;DHT22;69705;44.686;37.628;2023-07-30T10:01:00;31.78;45.46
76857;DHT22;69705;44.686;37.628;2023-07-30T10:03:27;31.90;45.29
76857;DHT22;69705;44.686;37.628;2023-07-30T10:06:04;32.12;44.93
76857;DHT22;69705;44.686;37.628;2023-07-30T10:08:36;32.35;43.86
76857;DHT22;69705;44.686;37.628;2023-07-30T10:11:05;32.41;43.09
76857;DHT22;69705;44.686;37.628;2023-07-30T10:13:35;32.08;44.71
76857;DHT22;69705;44.686;37.628;2023-07-30T10:16:02;31.57;45.52
76857;DHT22;69705;44.686;37.628;2023-07-30T10:18:40;31.13;44.86
76857;DHT22;69705;44.686;37.628;2023-07-30T10:21:14;30.85;46.73
76857;DHT22;69705;44.686;37.628;2023-07-30T10:24:04;30.53;48.43
76857;DHT22;69705;44.686;37.628;2023-07-30T10:26:33;30.75;47.95
76857;DHT22;69705;44.686;37.628;2023-07-30T10:29:26;31.23;47.43
76857;DHT22;69705;44.686;37.628;2023-07-30T10:31:56;31.49;45.58
76857;DHT22;69705;44.686;37.628;2023-07-30T10:34:26;31.76;45.04
76857;DHT22;69705;44.686;37.628;2023-07-30T10:36:55;32.05;44.66
76857;DHT22;69705;44.686;37.628;2023-07-30T10:39:27;32.03;44.40
76857;DHT22;69705;44.686;37.628;2023-07-30T10:41:56;32.00;43.81
76857;DHT22;69705;44.686;37.628;2023-07-30T10:44:33;32.29;44.28
76857;DHT22;69705;44.686;37.628;2023-07-30T10:47:01;32.46;43.10
76857;DHT22;69705;44.686;37.628;2023-07-30T10:49:29;32.67;42.03
76857;DHT22;69705;44.686;37.628;2023-07-30T10:51:57;32.86;42.84
76857;DHT22;69705;44.686;37.628;2023-07-30T10:54:23;33.05;41.53
76857;DHT22;69705;44.686;37.628;2023-07-30T10:56:51;33.09;40.34
76857;DHT22;69705;44.686;37.628;2023-07-30T10:59:19;33.18;40.05
76857;DHT22;69705;44.686;37.628;2023-07-30T11:01:46;32.96;41.65
76857;DHT22;69705;44.686;37.628;2023-07-30T11:04:18;32.70;43.34
76857;DHT22;69705;44.686;37.628;2023-07-30T11:06:50;32.54;40.05
76857;DHT22;69705;44.686;37.628;2023-07-30T11:11:46;32.31;45.74
76857;DHT22;69705;44.686;37.628;2023-07-30T11:14:21;31.99;42.74
76857;DHT22;69705;44.686;37.628;2023-07-30T11:17:06;31.61;44.44
76857;DHT22;69705;44.686;37.628;2023-07-30T11:19:33;31.31;45.16
76857;DHT22;69705;44.686;37.628;2023-07-30T11:22:00;31.07;43.56
76857;DHT22;69705;44.686;37.628;2023-07-30T11:24:36;31.44;44.94
76857;DHT22;69705;44.686;37.628;2023-07-30T11:27:03;31.42;46.06
76857;DHT22;69705;44.686;37.628;2023-07-30T11:29:30;31.70;46.19
76857;DHT22;69705;44.686;37.628;2023-07-30T11:31:58;32.02;45.28
76857;DHT22;69705;44.686;37.628;2023-07-30T11:34:28;31.94;41.93
76857;DHT22;69705;44.686;37.628;2023-07-30T11:36:57;32.10;42.79
76857;DHT22;69705;44.686;37.628;2023-07-30T11:39:25;32.44;42.93
76857;DHT22;69705;44.686;37.628;2023-07-30T11:41:52;32.69;41.20
76857;DHT22;69705;44.686;37.628;2023-07-30T11:44:33;32.88;40.29
76857;DHT22;69705;44.686;37.628;2023-07-30T11:47:00;33.09;39.64
76857;DHT22;69705;44.686;37.628;2023-07-30T11:49:26;33.25;40.69
76857;DHT22;69705;44.686;37.628;2023-07-30T11:52:14;32.89;40.80
76857;DHT22;69705;44.686;37.628;2023-07-30T11:54:40;32.48;42.55
76857;DHT22;69705;44.686;37.628;2023-07-30T11:57:07;32.24;44.31
76857;DHT22;69705;44.686;37.628;2023-07-30T11:59:34;32.17;43.10
76857;DHT22;69705;44.686;37.628;2023-07-30T12:02:00;32.48;43.13
76857;DHT22;69705;44.686;37.628;2023-07-30T12:04:42;32.52;40.84
76857;DHT22;69705;44.686;37.628;2023-07-30T12:07:10;32.43;41.60
76857;DHT22;69705;44.686;37.628;2023-07-30T12:09:36;32.47;41.24
76857;DHT22;69705;44.686;37.628;2023-07-30T12:12:04;32.26;42.22
76857;DHT22;69705;44.686;37.628;2023-07-30T12:17:17;32.62;40.09
76857;DHT22;69705;44.686;37.628;2023-07-30T12:19:43;32.74;40.19
76857;DHT22;69705;44.686;37.628;2023-07-30T12:22:10;32.98;40.40
76857;DHT22;69705;44.686;37.628;2023-07-30T12:24:37;33.11;39.75
76857;DHT22;69705;44.686;37.628;2023-07-30T12:27:03;33.06;38.62
76857;DHT22;69705;44.686;37.628;2023-07-30T12:29:30;33.22;39.59
76857;DHT22;69705;44.686;37.628;2023-07-30T12:31:57;33.23;39.53
76857;DHT22;69705;44.686;37.628;2023-07-30T12:34:25;32.98;40.70
76857;DHT22;69705;44.686;37.628;2023-07-30T12:36:51;32.67;41.32
76857;DHT22;69705;44.686;37.628;2023-07-30T12:39:18;32.46;42.00
76857;DHT22;69705;44.686;37.628;2023-07-30T12:41:45;32.58;40.81
76857;DHT22;69705;44.686;37.628;2023-07-30T12:44:12;32.89;41.33
76857;DHT22;69705;44.686;37.628;2023-07-30T12:46:38;32.75;41.45
76857;DHT22;69705;44.686;37.628;2023-07-30T12:49:05;32.54;41.71
76857;DHT22;69705;44.686;37.628;2023-07-30T12:51:32;32.24;40.94
76857;DHT22;69705;44.686;37.628;2023-07-30T12:53:59;31.94;40.91
76857;DHT22;69705;44.686;37.628;2023-07-30T12:56:26;31.82;43.47
76857;DHT22;69705;44.686;37.628;2023-07-30T12:58:53;31.59;41.95
76857;DHT22;69705;44.686;37.628;2023-07-30T13:01:19;31.49;42.93
76857;DHT22;69705;44.686;37.628;2023-07-30T13:03:46;31.40;43.00
76857;DHT22;69705;44.686;37.628;2023-07-30T13:06:14;31.28;46.04
76857;DHT22;69705;44.686;37.628;2023-07-30T13:08:41;31.15;45.43
76857;DHT22;69705;44.686;37.628;2023-07-30T13:11:08;31.05;47.60
76857;DHT22;69705;44.686;37.628;2023-07-30T13:13:34;31.13;45.68
76857;DHT22;69705;44.686;37.628;2023-07-30T13:16:01;31.34;45.39
76857;DHT22;69705;44.686;37.628;2023-07-30T13:18:28;31.41;45.77
76857;DHT22;69705;44.686;37.628;2023-07-30T13:20:55;31.24;46.41
76857;DHT22;69705;44.686;37.628;2023-07-30T13:23:22;31.04;47.42
76857;DHT22;69705;44.686;37.628;2023-07-30T13:25:51;30.83;47.76
76857;DHT22;69705;44.686;37.628;2023-07-30T13:28:18;30.71;48.87
76857;DHT22;69705;44.686;37.628;2023-07-30T13:30:44;30.56;49.56
76857;DHT22;69705;44.686;37.628;2023-07-30T13:33:11;30.41;49.60
76857;DHT22;69705;44.686;37.628;2023-07-30T13:35:38;30.44;48.47
76857;DHT22;69705;44.686;37.628;2023-07-30T13:38:04;30.30;48.70
76857;DHT22;69705;44.686;37.628;2023-07-30T13:40:31;30.15;48.47
76857;DHT22;69705;44.686;37.628;2023-07-30T13:42:58;30.03;49.11
76857;DHT22;69705;44.686;37.628;2023-07-30T13:45:24;30.00;51.30
76857;DHT22;69705;44.686;37.628;2023-07-30T13:47:52;30.24;50.30
76857;DHT22;69705;44.686;37.628;2023-07-30T13:50:19;30.54;49.15
76857;DHT22;69705;44.686;37.628;2023-07-30T13:52:46;30.84;48.65
76857;DHT22;69705;44.686;37.628;2023-07-30T13:55:13;31.10;48.66
76857;DHT22;69705;44.686;37.628;2023-07-30T13:57:42;31.22;47.99
76857;DHT22;69705;44.686;37.628;2023-07-30T14:00:09;31.37;46.93
76857;DHT22;69705;44.686;37.628;2023-07-30T14:02:36;31.49;46.51
76857;DHT22;69705;44.686;37.628;2023-07-30T14:05:03;31.55;46.97
76857;DHT22;69705;44.686;37.628;2023-07-30T14:07:30;31.68;45.33
76857;DHT22;69705;44.686;37.628;2023-07-30T14:09:58;31.61;45.41
76857;DHT22;69705;44.686;37.628;2023-07-30T14:12:24;31.59;45.81
76857;DHT22;69705;44.686;37.628;2023-07-30T14:14:51;31.49;45.95
76857;DHT22;69705;44.686;37.628;2023-07-30T14:17:17;31.46;46.20
76857;DHT22;69705;44.686;37.628;2023-07-30T14:19:44;31.39;46.74
76857;DHT22;69705;44.686;37.628;2023-07-30T14:22:11;31.43;45.82
76857;DHT22;69705;44.686;37.628;2023-07-30T14:24:37;31.36;45.13
76857;DHT22;69705;44.686;37.628;2023-07-30T14:27:04;31.29;45.52
76857;DHT22;69705;44.686;37.628;2023-07-30T14:29:31;31.23;46.03
76857;DHT22;69705;44.686;37.628;2023-07-30T14:31:58;31.20;46.38
76857;DHT22;69705;44.686;37.628;2023-07-30T14:34:24;31.09;46.98
76857;DHT22;69705;44.686;37.628;2023-07-30T14:36:51;31.00;46.40
76857;DHT22;69705;44.686;37.628;2023-07-30T14:39:17;30.97;45.89
76857;DHT22;69705;44.686;37.628;2023-07-30T14:41:44;30.90;47.47
76857;DHT22;69705;44.686;37.628;2023-07-30T14:44:11;30.77;48.02
76857;DHT22;69705;44.686;37.628;2023-07-30T14:46:38;30.64;47.23
76857;DHT22;69705;44.686;37.628;2023-07-30T14:49:04;30.59;48.01
76857;DHT22;69705;44.686;37.628;2023-07-30T14:51:31;30.46;47.28
76857;DHT22;69705;44.686;37.628;2023-07-30T14:53:57;30.37;47.37
76857;DHT22;69705;44.686;37.628;2023-07-30T14:56:24;30.33;47.88
76857;DHT22;69705;44.686;37.628;2023-07-30T14:58:51;30.19;48.48
76857;DHT22;69705;44.686;37.628;2023-07-30T15:01:17;30.08;47.69
76857;DHT22;69705;44.686;37.628;2023-07-30T15:03:44;29.97;48.05
76857;DHT22;69705;44.686;37.628;2023-07-30T15:06:10;29.89;47.90
76857;DHT22;69705;44.686;37.628;2023-07-30T15:08:37;29.80;48.87
76857;DHT22;69705;44.686;37.628;2023-07-30T15:11:03;29.71;47.87
76857;DHT22;69705;44.686;37.628;2023-07-30T15:13:30;29.60;49.66
76857;DHT22;69705;44.686;37.628;2023-07-30T15:15:56;29.52;49.41
76857;DHT22;69705;44.686;37.628;2023-07-30T15:18:23;29.36;49.05
76857;DHT22;69705;44.686;37.628;2023-07-30T15:20:50;29.21;49.89
76857;DHT22;69705;44.686;37.628;2023-07-30T15:23:16;29.09;51.08